Time;durP1;ratioP1;P1;durP2;ratioP2;P2;SDS_P1;SDS_P2;PMS_P1;PMS_P2;Temp;Humidity;BMP_temperature;BMP_pressure;BME280_temperature;BME280_humidity;BME280_pressure;Samples;Min_cycle;Max_cycle;Signal;HPM_P1;HPM_P2
2022/10/09 00:01:27;;;;;;;11.20;5.53;;;;;;;9.13;97.94;97207.78;5046219;28;20056;-73
2022/10/09 00:03:54;;;;;;;;;;;;;;;9.88;98.36;97319.81;5045506;28;20084;-73
2022/10/09 00:06:29;;;;;;;10.43;5.15;;;;;;;9.80;98.43;97315.28;5046291;28;19925;-74
2022/10/09 00:08:57;;;;;;;11.95;6.22;;;;;;;9.91;97.67;97321.88;5044495;28;20528;-74
2022/10/09 00:11:26;;;;;;;10.60;5.82;;;;;;;9.92;96.80;97317.97;5045986;28;20048;-74
2022/10/09 00:13:55;;;;;;;11.50;6.07;;;;;;;9.93;96.60;97319.56;5045836;28;20162;-74
2022/10/09 00:16:22;;;;;;;10.13;6.07;;;;;;;8.41;96.36;97070.22;5045913;28;20052;-73
2022/10/09 00:18:50;;;;;;;8.35;5.32;;;;;;;8.79;96.68;97139.41;5045692;28;20504;-73
2022/10/09 00:21:28;;;;;;;7.57;5.38;;;;;;;8.31;97.48;97054.19;5045360;28;20626;-74
2022/10/09 00:23:57;;;;;;;7.75;4.97;;;;;;;8.71;98.29;97129.38;5045587;28;20103;-73
2022/10/09 00:26:25;;;;;;;7.20;4.97;;;;;;;9.90;98.34;97320.28;5041583;28;20086;-73
2022/10/09 00:28:52;;;;;;;10.30;5.70;;;;;;;9.35;96.98;97215.44;5044393;28;20143;-72
2022/10/09 00:31:19;;;;;;;9.20;5.50;;;;;;;6.92;96.80;96832.28;5045527;28;20659;-73
2022/10/09 00:33:46;;;;;;;11.35;5.68;;;;;;;9.32;97.29;97221.69;5044249;28;20045;-73
2022/10/09 00:36:16;;;;;;;8.15;5.20;;;;;;;9.87;96.44;97304.41;5045102;28;20045;-73
2022/10/09 00:38:43;;;;;;;7.30;4.72;;;;;;;9.84;96.77;97310.66;5045799;28;20049;-73
2022/10/09 00:41:22;;;;;;;8.27;4.68;;;;;;;9.52;96.10;97242.69;5045093;28;20095;-73
2022/10/09 00:43:57;;;;;;;10.13;5.32;;;;;;;9.84;96.38;97310.66;5043595;28;20077;-72
2022/10/09 00:46:44;;;;;;;7.97;5.10;;;;;;;9.31;96.40;97280.88;5045506;28;20159;-73
2022/10/09 00:49:11;;;;;;;8.38;5.07;;;;;;;9.71;97.90;97306.38;5043847;28;20061;-72
2022/10/09 00:51:38;;;;;;;8.60;4.80;;;;;;;8.60;96.23;97122.78;5044808;28;20496;-72
2022/10/09 00:54:10;;;;;;;7.72;5.05;;;;;;;9.38;96.36;97330.81;5045014;28;20084;-72
2022/10/09 00:56:37;;;;;;;7.00;5.13;;;;;;;9.73;96.28;97304.06;5043299;28;20056;-73
2022/10/09 00:59:04;;;;;;;7.60;5.00;;;;;;;9.77;96.19;97306.91;5043348;28;20111;-73
2022/10/09 01:01:31;;;;;;;7.35;4.90;;;;;;;9.34;96.91;97263.59;5043148;28;20160;-73
2022/10/09 01:03:58;;;;;;;11.05;4.97;;;;;;;8.49;98.34;97176.88;5043421;28;20136;-72
2022/10/09 01:06:27;;;;;;;8.98;5.03;;;;;;;9.62;98.60;97299.41;5045018;28;20519;-73
2022/10/09 01:09:00;;;;;;;9.48;4.82;;;;;;;9.67;97.45;97305.50;5043153;28;20107;-73
2022/10/09 01:11:51;;;;;;;8.75;5.63;;;;;;;9.70;97.83;97304.78;5043237;28;20495;-72
2022/10/09 01:14:24;;;;;;;8.82;4.90;;;;;;;9.76;97.00;97308.88;5044067;28;20048;-72
2022/10/09 01:17:19;;;;;;;5.53;4.65;;;;;;;9.77;96.63;97306.91;5044976;28;20098;-72
2022/10/09 01:20:04;;;;;;;7.28;4.68;;;;;;;9.78;96.15;97301.03;5044548;28;20496;-72
2022/10/09 01:22:59;;;;;;;7.75;4.50;;;;;;;9.64;97.53;97300.66;5042685;28;20048;-72
2022/10/09 01:25:57;;;;;;;6.80;4.57;;;;;;;9.15;96.36;97205.47;5044416;28;20111;-72
2022/10/09 01:28:30;;;;;;;6.85;4.93;;;;;;;7.77;94.79;97066.84;5024705;28;20053;-72
2022/10/09 01:31:01;;;;;;;6.03;4.63;;;;;;;7.99;95.22;97108.47;5022852;28;20120;-73
2022/10/09 01:33:30;;;;;;;9.57;6.57;;;;;;;7.20;96.15;97158.06;5022954;28;20053;-73
2022/10/09 01:35:59;;;;;;;14.60;6.82;;;;;;;7.54;96.77;97158.38;5024347;28;20057;-72
2022/10/09 01:38:28;;;;;;;11.50;6.30;;;;;;;8.25;98.92;97306.72;5024710;28;20710;-73
2022/10/09 01:40:56;;;;;;;9.63;5.60;;;;;;;8.63;97.60;97304.28;5022855;28;20057;-72
2022/10/09 01:43:22;;;;;;;9.63;6.15;;;;;;;6.96;97.30;97045.19;5024450;28;20049;-73
2022/10/09 01:45:49;;;;;;;9.15;6.22;;;;;;;8.79;97.39;97302.34;5024178;28;20107;-73
2022/10/09 01:48:23;;;;;;;9.93;5.75;;;;;;;8.81;97.43;97308.34;5024211;28;20123;-72
2022/10/09 01:50:56;;;;;;;8.38;5.18;;;;;;;6.86;98.16;96985.09;5022711;28;20503;-72
2022/10/09 01:53:25;;;;;;;8.00;5.60;;;;;;;8.37;100.00;97202.59;5023161;28;20061;-73
2022/10/09 01:56:08;;;;;;;9.25;5.90;;;;;;;6.56;100.00;96913.03;5022765;28;20528;-72
2022/10/09 01:58:37;;;;;;;8.68;5.18;;;;;;;6.21;100.00;96834.94;5024667;28;20099;-72
2022/10/09 02:01:16;;;;;;;10.38;5.35;;;;;;;8.69;100.00;97231.09;5022957;28;20084;-73
2022/10/09 02:03:48;;;;;;;6.10;4.75;;;;;;;8.91;100.00;97266.41;5024469;28;20092;-73
2022/10/09 02:06:16;;;;;;;7.57;4.80;;;;;;;6.90;100.00;97027.31;5023355;28;20073;-73
2022/10/09 02:08:46;;;;;;;8.35;5.18;;;;;;;7.37;100.00;97009.84;5024491;28;20127;-72
2022/10/09 02:11:14;;;;;;;7.32;5.05;;;;;;;9.23;100.00;97312.28;5029202;28;20127;-73
2022/10/09 02:13:42;;;;;;;7.90;5.28;;;;;;;7.98;100.00;97130.88;5028992;28;20073;-73
2022/10/09 02:16:20;;;;;;;9.35;6.05;;;;;;;9.09;99.63;97314.63;5026872;28;20528;-72
2022/10/09 02:18:57;;;;;;;10.63;5.53;;;;;;;9.04;98.80;97314.91;5043767;28;20049;-73
2022/10/09 02:21:38;;;;;;;8.77;5.22;;;;;;;7.86;97.58;97130.91;5029478;28;20501;-74
2022/10/09 02:24:09;;;;;;;7.88;6.07;;;;;;;8.99;98.67;97315.16;5027345;28;20098;-72
2022/10/09 02:26:37;;;;;;;9.75;6.90;;;;;;;9.06;96.94;97318.09;5036307;28;20041;-72
2022/10/09 02:29:04;;;;;;;9.85;7.28;;;;;;;8.34;97.35;97244.69;5046322;28;20110;-73
2022/10/09 02:31:35;;;;;;;14.38;11.13;;;;;;;7.41;98.15;97059.53;5046340;28;20144;-72
2022/10/09 02:34:07;;;;;;;13.18;9.38;;;;;;;8.99;99.08;97323.47;5047859;28;20064;-73
2022/10/09 02:36:35;;;;;;;15.27;8.40;;;;;;;7.90;99.14;97151.97;5047834;28;20089;-72
2022/10/09 02:39:02;;;;;;;11.43;7.95;;;;;;;8.58;99.14;97269.44;5047264;28;20068;-73
2022/10/09 02:41:29;;;;;;;9.15;7.05;;;;;;;9.11;98.19;97337.19;5045996;28;20515;-73
2022/10/09 02:43:56;;;;;;;12.65;8.32;;;;;;;8.56;100.00;97337.19;5047577;28;20076;-73
2022/10/09 02:46:23;;;;;;;16.80;7.78;;;;;;;5.60;100.00;96944.06;5046360;28;20238;-73
2022/10/09 02:48:50;;;;;;;11.35;7.53;;;;;;;6.97;100.00;97163.25;5045816;28;20684;-73
2022/10/09 02:51:16;;;;;;;22.25;11.52;;;;;;;6.80;100.00;97085.56;5045551;28;20057;-74
2022/10/09 02:53:43;;;;;;;24.08;12.40;;;;;;;6.33;100.00;97107.22;5046142;28;20053;-73
2022/10/09 02:56:10;;;;;;;23.23;11.88;;;;;;;6.62;100.00;97093.28;5045639;28;20045;-73
2022/10/09 02:58:38;;;;;;;21.17;10.27;;;;;;;7.39;100.00;97194.91;5045898;28;20649;-72
2022/10/09 03:01:05;;;;;;;11.98;7.80;;;;;;;6.29;100.00;97032.06;5047221;28;20045;-72
2022/10/09 03:03:32;;;;;;;8.23;6.32;;;;;;;7.70;100.00;97305.38;5046843;28;20134;-72
2022/10/09 03:06:03;;;;;;;11.13;5.45;;;;;;;5.24;100.00;96981.59;5047062;28;20084;-73
2022/10/09 03:08:30;;;;;;;12.15;7.07;;;;;;;7.35;100.00;97329.00;5045354;28;20057;-74
2022/10/09 03:10:57;;;;;;;8.43;5.50;;;;;;;7.39;100.00;97283.09;5045932;28;20560;-72
2022/10/09 03:13:23;;;;;;;7.82;5.25;;;;;;;6.79;100.00;97181.13;5045723;28;20052;-73
2022/10/09 03:15:50;;;;;;;12.30;5.32;;;;;;;7.82;100.00;97328.56;5047071;28;20130;-72
2022/10/09 03:18:18;;;;;;;12.43;6.72;;;;;;;7.55;100.00;97339.16;5046948;28;20105;-74
2022/10/09 03:20:44;;;;;;;10.73;6.20;;;;;;;7.10;100.00;97186.88;5054776;28;20057;-73
2022/10/09 03:23:11;;;;;;;10.40;5.97;;;;;;;8.10;100.00;97319.22;5047182;28;20060;-73
2022/10/09 03:25:38;;;;;;;10.85;5.72;;;;;;;8.18;100.00;97348.66;5045459;28;20048;-72
2022/10/09 03:28:04;;;;;;;8.63;6.05;;;;;;;8.29;100.00;97321.41;5047700;28;20067;-73
2022/10/09 03:30:31;;;;;;;10.48;6.32;;;;;;;6.23;100.00;97005.91;5047238;28;20310;-73
2022/10/09 03:32:58;;;;;;;9.68;5.88;;;;;;;6.92;100.00;97100.16;5045810;28;20080;-73
2022/10/09 03:35:25;;;;;;;11.63;6.30;;;;;;;7.80;100.00;97234.34;5045648;28;20578;-74
2022/10/09 03:37:51;;;;;;;10.70;6.57;;;;;;;7.65;100.00;97236.69;5045751;28;20520;-73
2022/10/09 03:40:18;;;;;;;9.70;6.43;;;;;;;8.41;100.00;97333.22;5046705;28;20312;-74
2022/10/09 03:42:45;;;;;;;16.50;8.45;;;;;;;6.78;100.00;97196.03;5046867;28;20110;-74
2022/10/09 03:45:12;;;;;;;15.88;8.68;;;;;;;7.16;100.00;97218.56;5047475;28;20064;-74
2022/10/09 03:47:38;;;;;;;14.55;8.40;;;;;;;5.36;100.00;96896.53;5046188;28;20154;-73
2022/10/09 03:50:05;;;;;;;14.70;8.50;;;;;;;8.17;100.00;97346.25;5046059;28;20053;-74
2022/10/09 03:52:32;;;;;;;12.77;8.38;;;;;;;8.34;100.00;97362.56;5046241;28;20128;-73
2022/10/09 03:54:59;;;;;;;12.52;7.90;;;;;;;5.74;100.00;96968.47;5045778;28;20660;-73
2022/10/09 03:57:25;;;;;;;18.45;11.57;;;;;;;8.00;100.00;97277.53;5044534;28;20049;-74
2022/10/09 03:59:52;;;;;;;20.10;13.85;;;;;;;7.02;100.00;97118.94;5044836;28;20318;-72
2022/10/09 04:02:19;;;;;;;23.67;18.08;;;;;;;8.02;100.00;97277.97;5045990;28;20508;-74
2022/10/09 04:04:45;;;;;;;17.17;11.23;;;;;;;8.43;100.00;97333.69;5046308;28;20071;-75
2022/10/09 04:07:12;;;;;;;12.93;9.10;;;;;;;6.63;100.00;97017.81;5046157;28;20130;-73
2022/10/09 04:09:39;;;;;;;14.95;8.05;;;;;;;8.66;100.00;97345.00;5045655;28;20112;-74
2022/10/09 04:12:05;;;;;;;9.80;7.03;;;;;;;8.73;100.00;97331.38;5044338;28;20147;-73
2022/10/09 04:14:32;;;;;;;7.80;6.07;;;;;;;6.79;100.00;97049.00;5044168;28;20060;-73
2022/10/09 04:16:59;;;;;;;10.57;7.00;;;;;;;7.92;100.00;97179.19;5045812;28;20496;-73
2022/10/09 04:19:25;;;;;;;11.00;6.43;;;;;;;8.07;100.00;97208.78;5044133;28;20115;-73
2022/10/09 04:21:52;;;;;;;12.40;7.30;;;;;;;8.87;100.00;97337.31;5043772;28;20141;-73
2022/10/09 04:24:19;;;;;;;10.30;7.45;;;;;;;8.72;100.00;97412.63;5043805;28;20088;-73
2022/10/09 04:26:45;;;;;;;12.23;7.55;;;;;;;6.88;100.00;97043.34;5045637;28;20313;-73
2022/10/09 04:29:12;;;;;;;14.68;8.35;;;;;;;8.08;100.00;97249.03;5043896;28;20057;-73
2022/10/09 04:31:39;;;;;;;11.82;9.13;;;;;;;8.89;100.00;97384.72;5043397;28;20110;-72
2022/10/09 04:34:05;;;;;;;16.70;10.10;;;;;;;7.68;100.00;97158.00;5043250;28;20057;-73
2022/10/09 04:36:32;;;;;;;15.57;10.23;;;;;;;6.81;100.00;97023.88;5045151;28;20138;-72
2022/10/09 04:38:59;;;;;;;13.05;9.18;;;;;;;8.97;100.00;97343.16;5045090;28;20137;-74
2022/10/09 04:41:25;;;;;;;13.75;9.10;;;;;;;8.61;100.00;97334.19;5045043;28;20056;-73
2022/10/09 04:43:56;;;;;;;17.02;11.43;;;;;;;9.04;100.00;97348.06;5043526;28;20048;-72
2022/10/09 04:46:23;;;;;;;20.35;14.02;;;;;;;3.43;99.89;96445.69;5045106;28;20451;-73
2022/10/09 04:48:49;;;;;;;51.95;19.63;;;;;;;8.24;100.00;97346.47;5043553;28;20053;-73
2022/10/09 04:51:17;;;;;;;49.63;17.95;;;;;;;8.51;100.00;97307.06;5043418;28;20136;-73
2022/10/09 04:53:44;;;;;;;71.10;22.20;;;;;;;8.12;96.46;97255.44;5043585;28;20068;-74
2022/10/09 04:56:13;;;;;;;9.27;6.43;;;;;;;7.45;99.06;97347.84;5044673;28;20470;-74
2022/10/09 04:58:41;;;;;;;19.25;9.18;;;;;;;6.17;99.15;96960.53;5045100;28;20084;-73
2022/10/09 05:01:14;;;;;;;19.02;10.48;;;;;;;8.29;99.50;97249.66;5043167;28;20072;-73
2022/10/09 05:03:41;;;;;;;;;;;;;;;9.04;99.21;97346.09;5043919;28;20523;-73
2022/10/09 05:06:10;;;;;;;22.40;14.55;;;;;;;3.86;99.12;96624.81;5044460;28;20369;-75
2022/10/09 05:08:37;;;;;;;13.60;8.73;;;;;;;8.72;100.00;97352.69;5044497;28;20049;-73
2022/10/09 05:11:07;;;;;;;11.57;7.45;;;;;;;8.71;100.00;97350.28;5042831;28;20053;-74
2022/10/09 05:13:38;;;;;;;17.52;10.10;;;;;;;8.98;100.00;97344.75;5044319;28;20128;-72
2022/10/09 05:16:16;;;;;;;20.52;10.88;;;;;;;9.39;99.84;97349.00;5043074;28;20080;-74
2022/10/09 05:18:49;;;;;;;19.30;11.30;;;;;;;7.80;99.71;97113.03;5043216;28;20435;-72
2022/10/09 05:21:16;;;;;;;17.00;10.88;;;;;;;8.25;100.00;97210.91;5043225;28;20061;-73
2022/10/09 05:23:44;;;;;;;14.90;8.40;;;;;;;9.66;96.73;97352.88;5042914;28;20060;-74
2022/10/09 05:26:14;;;;;;;14.60;8.55;;;;;;;7.51;99.70;97192.13;5042427;28;20207;-73
2022/10/09 05:28:41;;;;;;;14.60;9.52;;;;;;;9.88;98.77;97361.34;5044407;28;20096;-73
2022/10/09 05:31:08;;;;;;;19.90;9.90;;;;;;;9.77;96.15;97353.94;5044352;28;20049;-73
2022/10/09 05:33:35;;;;;;;12.93;9.20;;;;;;;9.26;97.64;97297.75;5043032;28;20122;-73
2022/10/09 05:36:04;;;;;;;15.25;10.93;;;;;;;8.75;96.03;97141.28;5042676;28;20049;-73
2022/10/09 05:38:33;;;;;;;17.08;11.18;;;;;;;7.87;96.38;96978.13;5042773;28;20144;-72
2022/10/09 05:41:03;;;;;;;19.95;10.27;;;;;;;8.67;96.26;97143.06;5042178;28;20114;-75
2022/10/09 05:43:36;;;;;;;12.68;8.57;;;;;;;10.46;96.48;97371.44;5043482;28;20063;-72
2022/10/09 05:46:08;;;;;;;18.00;8.18;;;;;;;10.79;93.50;97367.41;5044284;28;20107;-73
2022/10/09 05:48:39;;;;;;;16.27;8.05;;;;;;;8.96;92.21;97036.84;5042672;28;20520;-73
2022/10/09 05:51:18;;;;;;;21.42;7.32;;;;;;;9.83;89.96;97165.16;5044144;28;20055;-73
2022/10/09 05:53:46;;;;;;;18.77;9.27;;;;;;;9.70;88.82;97080.75;5044107;28;20110;-74
2022/10/09 05:56:18;;;;;;;19.73;9.07;;;;;;;11.28;88.33;97290.78;5043700;28;20045;-74
2022/10/09 05:58:59;;;;;;;17.35;8.65;;;;;;;11.87;87.10;97335.44;5042818;28;20061;-74
2022/10/09 06:01:29;;;;;;;13.38;7.60;;;;;;;11.24;85.65;97190.88;5042924;28;20136;-73
2022/10/09 06:03:57;;;;;;;14.52;9.70;;;;;;;11.42;83.68;97216.13;5042387;28;20110;-73
2022/10/09 06:06:29;;;;;;;14.55;9.23;;;;;;;12.58;84.37;97388.16;5042817;28;20049;-73
2022/10/09 06:08:57;;;;;;;12.05;7.55;;;;;;;11.96;84.08;97239.63;5042756;28;20057;-73
2022/10/09 06:11:27;;;;;;;10.95;7.82;;;;;;;11.95;81.90;97193.59;5042522;28;20483;-73
2022/10/09 06:13:54;;;;;;;9.68;7.32;;;;;;;12.74;81.47;97285.13;5043984;28;20543;-73
2022/10/09 06:16:24;;;;;;;11.90;7.05;;;;;;;11.72;80.67;97106.03;5042575;28;20076;-73
2022/10/09 06:18:52;;;;;;;10.85;6.55;;;;;;;12.58;80.72;97226.97;5044018;28;20079;-73
2022/10/09 06:21:19;;;;;;;9.55;7.63;;;;;;;13.76;80.12;97361.38;5044211;28;20401;-73
2022/10/09 06:23:51;;;;;;;15.82;8.35;;;;;;;11.70;78.27;96991.84;5042375;28;20052;-73
2022/10/09 06:26:19;;;;;;;12.27;7.45;;;;;;;14.12;77.56;97338.22;5044023;28;20064;-74
2022/10/09 06:28:47;;;;;;;12.93;7.07;;;;;;;13.63;76.34;97339.41;5043866;28;20505;-73
2022/10/09 06:31:18;;;;;;;9.10;7.07;;;;;;;14.60;76.70;97376.84;5043312;28;20060;-73
2022/10/09 06:33:47;;;;;;;9.15;6.93;;;;;;;14.78;75.55;97382.53;5042992;28;20053;-72
2022/10/09 06:36:16;;;;;;;15.55;7.60;;;;;;;12.67;75.05;97030.16;5043060;28;20056;-72
2022/10/09 06:38:43;;;;;;;12.30;7.05;;;;;;;14.40;75.09;97313.41;5043161;28;20088;-72
2022/10/09 06:41:13;;;;;;;12.27;7.38;;;;;;;15.06;74.58;97379.91;5043255;28;20155;-72
2022/10/09 06:43:41;;;;;;;11.57;7.32;;;;;;;15.25;74.07;97379.59;5041735;28;20089;-72
2022/10/09 06:46:11;;;;;;;12.98;7.90;;;;;;;14.87;73.48;97307.69;5041451;28;20565;-73
2022/10/09 06:48:39;;;;;;;9.18;6.72;;;;;;;14.82;73.54;97311.66;5042945;28;20518;-73
2022/10/09 06:51:11;;;;;;;12.32;7.68;;;;;;;13.53;72.63;97053.44;5041681;28;20103;-72
2022/10/09 06:53:40;;;;;;;10.95;7.93;;;;;;;15.88;72.42;97385.41;5041775;28;20053;-73
2022/10/09 06:56:09;;;;;;;15.25;8.88;;;;;;;8.74;70.92;96239.53;5044787;28;20234;-73
2022/10/09 06:58:37;;;;;;;12.20;8.02;;;;;;;12.62;71.24;96854.63;5045362;28;20332;-71
2022/10/09 07:01:09;;;;;;;15.48;8.32;;;;;;;14.74;70.55;97156.63;5045021;28;20114;-73
2022/10/09 07:03:38;;;;;;;12.98;7.72;;;;;;;16.43;70.26;97386.63;5046727;28;20057;-72
2022/10/09 07:06:20;;;;;;;6.65;5.28;;;;;;;16.72;69.67;97395.84;5045306;28;20080;-73
2022/10/09 07:08:49;;;;;;;9.80;6.03;;;;;;;16.91;69.07;97403.78;5045087;28;20056;-73
2022/10/09 07:11:22;;;;;;;8.90;6.05;;;;;;;16.57;67.83;97311.13;5045515;28;20053;-74
2022/10/09 07:13:54;;;;;;;9.13;6.40;;;;;;;14.63;66.31;97023.97;5046722;28;20053;-72
2022/10/09 07:16:24;;;;;;;6.35;5.57;;;;;;;17.58;65.96;97397.97;5046687;28;20099;-73
2022/10/09 07:18:50;;;;;;;16.10;6.40;;;;;;;17.86;64.88;97397.84;5045485;28;20056;-73
2022/10/09 07:21:18;;;;;;;8.40;5.80;;;;;;;18.04;64.11;97404.13;5045024;28;20088;-72
2022/10/09 07:23:45;;;;;;;7.18;5.65;;;;;;;18.24;62.97;97396.78;5045081;28;20134;-72
2022/10/09 07:26:16;;;;;;;8.77;5.72;;;;;;;17.22;60.84;97278.91;5044960;28;20553;-72
2022/10/09 07:28:43;;;;;;;7.82;5.07;;;;;;;18.34;58.84;97355.81;5044374;28;20435;-72
2022/10/09 07:31:10;;;;;;;7.05;4.70;;;;;;;18.35;57.64;97329.38;5046372;28;20057;-72
2022/10/09 07:33:38;;;;;;;7.22;4.55;;;;;;;18.61;57.08;97349.22;5044636;28;20421;-71
2022/10/09 07:36:05;;;;;;;7.55;5.47;;;;;;;18.43;56.87;97281.22;5046346;28;20197;-72
2022/10/09 07:38:33;;;;;;;4.85;3.90;;;;;;;16.98;56.68;97089.50;5044715;28;20502;-72
2022/10/09 07:41:01;;;;;;;6.57;3.92;;;;;;;19.49;55.98;97399.63;5045915;28;20130;-73
2022/10/09 07:43:28;;;;;;;10.45;6.07;;;;;;;18.73;54.69;97267.28;5046089;28;20086;-73
2022/10/09 07:46:02;;;;;;;8.93;4.60;;;;;;;18.75;55.14;97273.28;5046050;28;20141;-74
2022/10/09 07:48:29;;;;;;;10.82;4.30;;;;;;;19.08;53.43;97283.72;5045849;28;20061;-73
2022/10/09 07:51:24;;;;;;;5.07;4.20;;;;;;;19.35;53.68;97315.50;5044490;28;20049;-76
2022/10/09 07:54:08;;;;;;;6.30;4.75;;;;;;;19.54;52.72;97305.59;5030232;28;20061;-76
2022/10/09 07:56:36;;;;;;;6.63;4.53;;;;;;;20.17;52.60;97360.94;5044787;28;20134;-76
2022/10/09 07:59:06;;;;;;;6.93;4.57;;;;;;;19.96;52.27;97309.81;5045904;28;20053;-76
2022/10/09 08:01:34;;;;;;;8.45;5.22;;;;;;;19.93;51.78;97384.59;5044504;28;20186;-77
2022/10/09 08:04:02;;;;;;;14.15;6.97;;;;;;;20.28;51.73;97388.91;5044685;28;20131;-76
2022/10/09 08:06:29;;;;;;;6.28;4.95;;;;;;;19.80;51.09;97284.34;5045497;28;20106;-76
2022/10/09 08:08:58;;;;;;;8.07;5.90;;;;;;;20.43;51.14;97391.09;5044330;28;20532;-76
2022/10/09 08:11:25;;;;;;;9.15;5.72;;;;;;;20.53;51.35;97394.94;5044568;28;20105;-76
2022/10/09 08:13:53;;;;;;;9.85;5.30;;;;;;;20.71;50.24;97384.97;5046058;28;20405;-76
2022/10/09 08:16:21;;;;;;;5.63;4.15;;;;;;;20.21;50.14;97313.06;5044041;28;20049;-75
2022/10/09 08:18:48;;;;;;;11.52;5.93;;;;;;;20.02;50.52;97280.00;5044244;28;20060;-75
2022/10/09 08:21:17;;;;;;;8.10;6.13;;;;;;;19.52;50.74;97195.66;5045420;28;20484;-75
2022/10/09 08:23:44;;;;;;;10.35;6.72;;;;;;;20.39;50.94;97350.16;5043712;28;20053;-76
2022/10/09 08:26:14;;;;;;;12.30;5.50;;;;;;;20.84;50.08;97410.50;5044178;28;20061;-75
2022/10/09 08:28:41;;;;;;;8.75;5.45;;;;;;;20.74;49.66;97372.03;5044512;28;20611;-75
2022/10/09 08:31:12;;;;;;;7.47;5.22;;;;;;;19.62;50.45;97320.38;5045136;28;20052;-75
2022/10/09 08:33:39;;;;;;;7.80;5.70;;;;;;;20.29;50.76;97368.00;5044760;28;20048;-74
2022/10/09 08:36:08;;;;;;;9.65;5.93;;;;;;;19.13;50.56;97184.97;5044544;28;20107;-77
2022/10/09 08:38:36;;;;;;;10.65;7.10;;;;;;;19.90;50.05;97244.03;5044404;28;20150;-75
2022/10/09 08:41:31;;;;;;;8.23;5.75;;;;;;;20.93;49.81;97379.75;5043922;28;20146;-76
2022/10/09 08:44:05;;;;;;;5.43;4.80;;;;;;;20.70;49.38;97396.66;5043634;28;20130;-76
2022/10/09 08:46:45;;;;;;;;;;;;;;;20.99;49.01;97378.06;5044259;28;20161;-74
2022/10/09 08:49:24;;;;;;;6.07;5.10;;;;;;;19.44;48.84;97105.03;5046692;28;19924;-75
2022/10/09 08:51:53;;;;;;;12.48;5.68;;;;;;;21.38;48.50;97383.75;5045758;28;20052;-74
2022/10/09 08:54:35;;;;;;;8.15;5.97;;;;;;;21.54;48.29;97366.91;5043739;28;20095;-76
2022/10/09 08:57:08;;;;;;;9.40;4.72;;;;;;;21.00;48.06;97258.53;5043303;28;20134;-74
2022/10/09 08:59:35;;;;;;;6.43;5.28;;;;;;;21.92;47.70;97362.50;5043097;28;20140;-74
2022/10/09 09:02:05;;;;;;;7.25;4.70;;;;;;;22.08;46.60;97365.31;5059817;28;20138;-75
2022/10/09 09:04:46;;;;;;;6.25;5.00;;;;;;;22.16;46.97;97361.09;5044254;28;20056;-78
2022/10/09 09:07:35;;;;;;;7.82;5.18;;;;;;;22.29;45.92;97359.19;5042748;28;20569;-76
2022/10/09 09:10:32;;;;;;;8.57;5.45;;;;;;;20.77;47.63;97292.38;5043124;28;20111;-76
2022/10/09 09:13:12;;;;;;;5.93;5.35;;;;;;;21.59;47.71;97372.03;5044301;28;20052;-75
2022/10/09 09:15:45;;;;;;;12.20;5.25;;;;;;;21.31;47.64;97262.69;5044214;28;20052;-75
2022/10/09 09:18:44;;;;;;;6.53;4.65;;;;;;;20.63;46.63;97098.38;5043865;28;20068;-74
2022/10/09 09:21:42;;;;;;;6.45;5.35;;;;;;;22.49;45.07;97348.59;5044783;28;20491;-73
2022/10/09 09:24:16;;;;;;;5.88;4.20;;;;;;;22.05;45.39;97287.19;5037745;28;20118;-77
2022/10/09 09:26:49;;;;;;;9.38;4.38;;;;;;;22.39;45.20;97318.63;5044608;28;20056;-77
2022/10/09 09:29:19;;;;;;;8.15;4.55;;;;;;;22.36;44.18;97291.28;5043350;28;20471;-76
2022/10/09 09:31:49;;;;;;;7.53;4.55;;;;;;;22.22;44.82;97263.38;5044531;28;20057;-78
2022/10/09 09:34:27;;;;;;;12.25;4.72;;;;;;;22.87;43.91;97325.47;5044360;28;20476;-76
2022/10/09 09:36:57;;;;;;;5.55;4.20;;;;;;;22.20;43.14;97226.34;5043054;28;20061;-76
2022/10/09 09:39:33;;;;;;;4.95;4.13;;;;;;;21.73;44.24;97244.84;5043432;28;20083;-74
2022/10/09 09:42:20;;;;;;;8.38;4.93;;;;;;;21.00;44.72;97162.75;5044778;28;20055;-75
2022/10/09 09:44:58;;;;;;;6.22;5.10;;;;;;;21.79;45.58;97339.00;5045520;28;20083;-76
2022/10/09 09:47:50;;;;;;;6.32;4.72;;;;;;;19.28;46.08;96969.31;5043835;28;20088;-77
2022/10/09 09:50:38;;;;;;;5.18;4.47;;;;;;;21.20;46.28;97357.94;5044824;28;20122;-76
2022/10/09 09:53:42;;;;;;;6.25;4.32;;;;;;;21.17;45.41;97288.34;5044231;28;20096;-77
2022/10/09 09:56:09;;;;;;;9.27;5.03;;;;;;;20.95;46.17;97275.91;5045095;28;20056;-74
2022/10/09 09:58:54;;;;;;;7.75;4.72;;;;;;;21.36;46.40;97352.38;5044114;28;20150;-75
2022/10/09 10:01:26;;;;;;;9.82;5.25;;;;;;;21.90;45.45;97350.03;5044349;28;20100;-74
2022/10/09 10:03:58;;;;;;;5.50;4.03;;;;;;;22.29;44.34;97347.09;5042452;28;20056;-76
2022/10/09 10:06:30;;;;;;;5.45;4.57;;;;;;;22.44;44.43;97343.50;5042016;28;20057;-74
2022/10/09 10:09:02;;;;;;;8.35;4.35;;;;;;;22.79;44.12;97338.19;5042116;28;20139;-74
2022/10/09 10:11:32;;;;;;;5.90;4.18;;;;;;;23.08;44.07;97339.03;5044085;28;20407;-75
2022/10/09 10:14:06;;;;;;;4.95;4.38;;;;;;;23.20;43.14;97338.28;5043807;28;20089;-75
2022/10/09 10:16:37;;;;;;;10.82;4.97;;;;;;;23.34;43.06;97337.91;5042476;28;20136;-74
2022/10/09 10:19:07;;;;;;;9.73;5.60;;;;;;;22.93;42.71;97267.97;5043943;28;20048;-75
2022/10/09 10:21:47;;;;;;;11.00;5.25;;;;;;;23.49;42.40;97337.06;5042406;28;20045;-75
2022/10/09 10:24:26;;;;;;;13.60;5.55;;;;;;;21.88;41.99;97057.09;5042215;28;20148;-76
2022/10/09 10:26:58;;;;;;;8.75;4.88;;;;;;;23.16;41.80;97269.72;5044176;28;20102;-75
2022/10/09 10:29:47;;;;;;;7.03;4.38;;;;;;;23.09;41.94;97202.94;5044552;28;20112;-75
2022/10/09 10:32:16;;;;;;;10.35;5.07;;;;;;;24.00;41.58;97329.47;5046437;28;20126;-75
2022/10/09 10:34:51;;;;;;;4.82;4.43;;;;;;;23.89;41.53;97300.69;5046773;28;20060;-75
2022/10/09 10:37:28;;;;;;;10.25;4.93;;;;;;;23.96;41.44;97305.31;5047813;28;20141;-74
2022/10/09 10:40:11;;;;;;;6.65;4.55;;;;;;;23.96;41.57;97277.84;5047813;28;20076;-74
2022/10/09 10:42:53;;;;;;;6.27;4.70;;;;;;;23.73;40.84;97218.72;5046120;28;20503;-75
2022/10/09 10:45:45;;;;;;;11.18;5.82;;;;;;;24.48;40.35;97309.31;5046887;28;20541;-73
2022/10/09 10:48:21;;;;;;;8.45;4.80;;;;;;;24.16;40.48;97306.72;5036618;28;20134;-74
2022/10/09 10:50:57;;;;;;;6.20;4.85;;;;;;;23.58;40.70;97229.69;5047635;28;20135;-72
2022/10/09 10:53:40;;;;;;;6.88;5.22;;;;;;;22.66;41.30;97088.78;5047067;28;20589;-73
2022/10/09 10:56:39;;;;;;;10.88;4.90;;;;;;;23.86;40.77;97264.81;5047287;28;20572;-73
2022/10/09 10:59:09;;;;;;;5.45;4.70;;;;;;;23.97;41.12;97290.75;5032329;28;20140;-77
2022/10/09 11:02:07;;;;;;;9.57;4.18;;;;;;;24.01;40.77;97297.13;5047814;28;20048;-74
2022/10/09 11:05:12;;;;;;;6.22;5.20;;;;;;;24.10;40.56;97288.72;5047245;28;20128;-76
2022/10/09 11:07:57;;;;;;;7.22;4.95;;;;;;;24.27;40.63;97283.72;5046381;28;20811;-78
2022/10/09 11:10:38;;;;;;;6.85;4.75;;;;;;;24.34;39.87;97286.31;5046582;28;20572;-71
2022/10/09 11:13:21;;;;;;;6.03;4.47;;;;;;;23.89;40.33;97212.94;5045226;28;20452;-68
2022/10/09 11:16:07;;;;;;;5.78;4.50;;;;;;;24.44;40.06;97280.28;5044084;28;20497;-69
2022/10/09 11:18:49;;;;;;;7.40;4.28;;;;;;;24.56;39.74;97282.31;5044869;28;20053;-68
2022/10/09 11:22:01;;;;;;;4.73;4.27;;;;;;;24.64;39.24;97278.00;5044966;28;20065;-68
2022/10/09 11:24:49;;;;;;;5.97;4.90;;;;;;;24.53;39.76;97277.53;5001990;28;20059;-69
2022/10/09 11:27:47;;;;;;;5.38;4.43;;;;;;;24.59;39.17;97264.41;5002705;28;20152;-69
2022/10/09 11:30:16;;;;;;;5.85;4.88;;;;;;;24.67;39.50;97265.78;5032894;28;20155;-70
2022/10/09 11:33:03;;;;;;;7.10;4.35;;;;;;;24.53;39.48;97254.88;5044359;28;20553;-71
2022/10/09 11:35:38;;;;;;;4.35;3.95;;;;;;;24.01;39.38;97209.38;5042809;28;20052;-70
2022/10/09 11:38:49;;;;;;;9.20;4.43;;;;;;;23.55;39.87;97178.91;5043068;28;20041;-70
2022/10/09 11:41:17;;;;;;;6.05;3.70;;;;;;;24.38;39.14;97270.78;5036496;28;20045;-70
2022/10/09 11:44:02;;;;;;;5.53;3.95;;;;;;;24.01;39.81;97263.16;5043131;28;20088;-72
2022/10/09 11:47:04;;;;;;;7.05;4.22;;;;;;;24.34;39.22;97264.47;5043573;28;20060;-69
2022/10/09 11:50:02;;;;;;;7.88;4.57;;;;;;;24.36;39.72;97261.94;5040161;28;20049;-70
2022/10/09 11:52:48;;;;;;;8.45;5.20;;;;;;;24.55;38.77;97252.38;5046504;28;21335;-70
2022/10/09 11:55:24;;;;;;;5.93;4.70;;;;;;;23.53;39.69;97153.13;5045601;28;20080;-70
2022/10/09 11:57:51;;;;;;;6.20;4.32;;;;;;;24.57;39.45;97271.75;5046026;28;20076;-71